createdAt,value
2022-08-25T00:01:36.283Z,66.17
2022-08-25T00:04:02.921Z,66.22
2022-08-25T00:06:29.279Z,66.67
2022-08-25T00:11:49.303Z,66.75
2022-08-25T00:14:16.564Z,66.70
2022-08-25T00:16:42.961Z,66.38
2022-08-25T00:19:10.273Z,66.42
2022-08-25T00:21:37.500Z,66.80
2022-08-25T00:26:47.912Z,66.53
2022-08-25T00:29:15.144Z,66.27
2022-08-25T00:31:41.582Z,66.04
2022-08-25T00:34:07.966Z,66.52
2022-08-25T00:36:34.342Z,66.88
2022-08-25T00:39:00.701Z,66.85
2022-08-25T00:41:27.152Z,66.75
2022-08-25T00:43:53.531Z,66.45
2022-08-25T00:46:20.930Z,66.63
2022-08-25T00:48:47.357Z,66.82
2022-08-25T00:51:14.568Z,66.92
2022-08-25T00:53:41.812Z,66.95
2022-08-25T00:56:09.055Z,67.70
2022-08-25T00:58:35.436Z,67.12
2022-08-25T01:01:01.850Z,67.06
2022-08-25T01:03:32.957Z,67.09
2022-08-25T01:05:59.748Z,66.94
2022-08-25T01:08:26.122Z,66.66
2022-08-25T01:10:55.472Z,66.95
2022-08-25T01:13:21.845Z,66.87
2022-08-25T01:15:48.259Z,67.38
2022-08-25T01:18:15.526Z,67.39
2022-08-25T01:20:41.917Z,67.39
2022-08-25T01:23:09.143Z,67.40
2022-08-25T01:25:35.503Z,67.38
2022-08-25T01:28:01.956Z,67.44
2022-08-25T01:30:28.381Z,67.40
2022-08-25T01:32:54.754Z,67.02
2022-08-25T01:35:21.114Z,67.22
2022-08-25T01:37:48.330Z,67.27
2022-08-25T01:40:15.623Z,67.54
2022-08-25T01:42:42.935Z,67.38
2022-08-25T01:45:10.176Z,67.71
2022-08-25T01:47:36.539Z,67.70
2022-08-25T01:50:03.793Z,67.85
2022-08-25T01:52:33.310Z,67.93
2022-08-25T01:55:00.565Z,67.54
2022-08-25T01:57:27.809Z,67.82
2022-08-25T01:59:57.811Z,67.80
2022-08-25T02:02:24.234Z,68.05
2022-08-25T02:04:55.474Z,68.18
2022-08-25T02:07:21.985Z,68.13
2022-08-25T02:09:48.458Z,68.17
2022-08-25T02:15:08.780Z,68.38
2022-08-25T02:17:35.236Z,68.27
2022-08-25T02:20:01.676Z,68.08
2022-08-25T02:22:28.150Z,68.21
2022-08-25T02:24:54.659Z,68.34
2022-08-25T02:30:06.009Z,68.08
2022-08-25T02:32:33.271Z,68.13
2022-08-25T02:35:01.583Z,68.10
2022-08-25T02:37:28.086Z,68.57
2022-08-25T02:39:54.622Z,68.37
2022-08-25T02:45:07.122Z,68.50
2022-08-25T02:47:35.452Z,68.37
2022-08-25T02:50:01.972Z,68.59
2022-08-25T02:52:28.431Z,68.59
2022-08-25T02:54:55.758Z,68.74
2022-08-25T03:00:17.535Z,68.87
2022-08-25T03:02:46.085Z,69.54
2022-08-25T03:05:12.522Z,69.47
2022-08-25T03:07:39.039Z,70.33
2022-08-25T03:10:07.150Z,69.47
2022-08-25T03:15:21.797Z,69.36
2022-08-25T03:17:48.245Z,69.04
2022-08-25T03:20:16.976Z,69.02
2022-08-25T03:22:43.428Z,68.50
2022-08-25T03:25:10.713Z,68.70
2022-08-25T03:30:22.457Z,68.83
2022-08-25T03:32:48.930Z,69.17
2022-08-25T03:35:15.368Z,68.80
2022-08-25T03:37:41.826Z,68.74
2022-08-25T03:40:08.287Z,68.63
2022-08-25T03:45:36.755Z,69.20
2022-08-25T03:48:03.324Z,68.83
2022-08-25T03:50:29.781Z,68.80
2022-08-25T03:52:56.224Z,68.99
2022-08-25T03:55:22.669Z,68.59
2022-08-25T04:00:43.797Z,68.58
2022-08-25T04:03:10.328Z,68.64
2022-08-25T04:05:37.643Z,68.78
2022-08-25T04:08:05.084Z,68.23
2022-08-25T04:10:32.550Z,68.58
2022-08-25T04:15:43.842Z,68.55
2022-08-25T04:18:11.220Z,68.16
2022-08-25T04:20:39.845Z,68.18
2022-08-25T04:23:09.478Z,68.37
2022-08-25T04:25:36.753Z,68.53
2022-08-25T04:30:51.869Z,68.13
2022-08-25T04:33:19.444Z,68.36
2022-08-25T04:35:45.889Z,68.83
2022-08-25T04:38:12.342Z,68.09
2022-08-25T04:40:38.803Z,68.40
2022-08-25T04:46:00.244Z,67.86
2022-08-25T04:48:27.682Z,67.48
2022-08-25T04:50:54.126Z,67.76
2022-08-25T04:53:22.150Z,67.88
2022-08-25T04:55:49.532Z,67.97
2022-08-25T05:01:00.057Z,67.89
2022-08-25T05:03:26.626Z,67.71
2022-08-25T05:05:53.121Z,68.04
2022-08-25T05:08:20.645Z,67.79
2022-08-25T05:10:47.509Z,67.82
2022-08-25T05:16:00.261Z,68.19
2022-08-25T05:18:27.044Z,67.70
2022-08-25T05:20:54.420Z,67.78
2022-08-25T05:23:21.842Z,68.14
2022-08-25T05:25:48.567Z,68.44
2022-08-25T05:31:11.056Z,69.67
2022-08-25T05:33:38.483Z,70.26
2022-08-25T05:36:05.884Z,70.57
2022-08-25T05:38:32.389Z,70.38
2022-08-25T05:40:59.778Z,70.44
2022-08-25T05:46:21.549Z,69.21
2022-08-25T05:48:48.079Z,69.03
2022-08-25T05:51:15.486Z,69.56
2022-08-25T05:53:42.033Z,69.56
2022-08-25T05:56:08.540Z,69.45
2022-08-25T06:01:20.006Z,68.19
2022-08-25T06:03:47.485Z,68.57
2022-08-25T06:06:14.958Z,68.27
2022-08-25T06:08:42.340Z,67.99
2022-08-25T06:11:08.845Z,67.88
2022-08-25T06:16:19.244Z,67.85
2022-08-25T06:18:46.671Z,67.80
2022-08-25T06:21:13.199Z,67.80
2022-08-25T06:23:40.645Z,67.58
2022-08-25T06:26:07.144Z,67.79
2022-08-25T06:31:28.662Z,67.87
2022-08-25T06:33:55.234Z,67.79
2022-08-25T06:36:22.634Z,67.71
2022-08-25T06:38:50.007Z,67.97
2022-08-25T06:41:17.387Z,67.85
2022-08-25T06:46:35.759Z,67.42
2022-08-25T06:49:03.128Z,67.19
2022-08-25T06:51:29.885Z,68.16
2022-08-25T06:53:57.278Z,66.70
2022-08-25T06:56:23.993Z,65.37
2022-08-25T07:01:35.599Z,64.69
2022-08-25T07:04:02.156Z,64.79
2022-08-25T07:06:28.789Z,65.68
2022-08-25T07:08:56.222Z,66.13
2022-08-25T07:11:23.656Z,66.04
2022-08-25T07:16:34.470Z,66.27
2022-08-25T07:19:01.076Z,66.38
2022-08-25T07:21:32.629Z,66.47
2022-08-25T07:24:01.005Z,66.77
2022-08-25T07:26:43.674Z,66.48
2022-08-25T07:32:04.993Z,66.42
2022-08-25T07:34:31.789Z,66.61
2022-08-25T07:36:59.213Z,66.23
2022-08-25T07:39:29.024Z,66.13
2022-08-25T07:41:55.699Z,66.03
2022-08-25T07:47:08.187Z,65.91
2022-08-25T07:49:36.073Z,65.84
2022-08-25T07:52:07.235Z,65.61
2022-08-25T07:54:37.969Z,65.53
2022-08-25T07:57:04.934Z,65.47
2022-08-25T08:02:19.027Z,65.19
2022-08-25T08:04:46.790Z,65.20
2022-08-25T08:07:13.246Z,65.33
2022-08-25T08:09:40.520Z,65.23
2022-08-25T08:12:06.989Z,64.89
2022-08-25T08:17:29.267Z,65.02
2022-08-25T08:19:55.712Z,65.15
2022-08-25T08:22:22.650Z,65.41
2022-08-25T08:24:54.524Z,65.34
2022-08-25T08:27:22.056Z,65.18
2022-08-25T08:33:08.657Z,65.34
2022-08-25T08:35:30.843Z,65.57
2022-08-25T08:37:58.090Z,65.32
2022-08-25T08:40:24.736Z,65.33
2022-08-25T08:42:51.266Z,65.37
2022-08-25T08:48:02.302Z,65.19
2022-08-25T08:50:32.952Z,65.35
2022-08-25T08:53:00.571Z,65.29
2022-08-25T08:55:27.810Z,65.22
2022-08-25T08:57:55.668Z,65.00
2022-08-25T09:03:06.294Z,65.07
2022-08-25T09:05:34.469Z,65.21
2022-08-25T09:08:05.819Z,65.05
2022-08-25T09:10:33.198Z,65.19
2022-08-25T09:13:00.434Z,65.14
2022-08-25T09:18:12.123Z,65.27
2022-08-25T09:20:39.618Z,65.13
2022-08-25T09:23:06.876Z,65.09
2022-08-25T09:25:52.272Z,65.08
2022-08-25T09:28:20.144Z,65.22
2022-08-25T09:33:31.452Z,65.11
2022-08-25T09:36:01.956Z,65.19
2022-08-25T09:38:34.377Z,65.18
2022-08-25T09:41:01.639Z,65.28
2022-08-25T09:43:28.876Z,65.25
2022-08-25T09:48:56.038Z,65.23
2022-08-25T09:51:24.310Z,65.38
2022-08-25T09:53:51.945Z,65.28
2022-08-25T09:56:19.234Z,65.41
2022-08-25T09:58:45.719Z,65.29
2022-08-25T10:04:06.416Z,65.40
2022-08-25T10:06:40.494Z,65.32
2022-08-25T10:09:08.950Z,65.50
2022-08-25T10:11:35.412Z,65.37
2022-08-25T10:14:01.917Z,65.22
2022-08-25T10:19:24.701Z,65.42
2022-08-25T10:21:51.193Z,65.72
2022-08-25T10:24:17.599Z,65.40
2022-08-25T10:26:44.090Z,65.60
2022-08-25T10:29:11.345Z,65.75
2022-08-25T10:34:22.353Z,65.40
2022-08-25T10:36:51.142Z,65.65
2022-08-25T10:39:34.204Z,65.63
2022-08-25T10:42:03.062Z,65.51
2022-08-25T10:44:31.641Z,65.64
2022-08-25T10:49:42.320Z,65.55
2022-08-25T10:52:08.859Z,65.53
2022-08-25T10:54:37.125Z,65.36
2022-08-25T10:57:03.578Z,65.34
2022-08-25T10:59:34.645Z,65.22
2022-08-25T11:04:47.286Z,65.61
2022-08-25T11:07:15.857Z,65.50
2022-08-25T11:09:44.740Z,65.40
2022-08-25T11:12:11.461Z,65.40
2022-08-25T11:14:39.800Z,65.38
2022-08-25T11:20:01.056Z,65.40
2022-08-25T11:22:29.396Z,65.40
2022-08-25T11:24:56.616Z,65.38
2022-08-25T11:27:24.527Z,65.46
2022-08-25T11:29:51.896Z,65.43
2022-08-25T11:35:13.406Z,65.37
2022-08-25T11:37:40.667Z,65.61
2022-08-25T11:40:08.740Z,65.48
2022-08-25T11:42:36.239Z,65.39
2022-08-25T11:45:02.669Z,65.31
2022-08-25T11:50:13.934Z,65.53
2022-08-25T11:52:40.453Z,65.30
2022-08-25T11:55:08.106Z,65.23
2022-08-25T11:57:36.256Z,65.25
2022-08-25T12:00:02.776Z,65.34
2022-08-25T12:05:13.565Z,65.15
2022-08-25T12:07:40.091Z,65.12
2022-08-25T12:10:09.250Z,65.34
2022-08-25T12:12:39.240Z,65.19
2022-08-25T12:15:07.606Z,65.08
2022-08-25T12:20:18.064Z,65.20
2022-08-25T12:22:44.475Z,65.17
2022-08-25T12:25:11.714Z,65.24
2022-08-25T12:27:38.808Z,65.17
2022-08-25T12:30:05.328Z,65.03
2022-08-25T12:35:26.400Z,65.08
2022-08-25T12:37:56.186Z,65.34
2022-08-25T12:40:24.604Z,65.08
2022-08-25T12:42:51.076Z,65.19
2022-08-25T12:45:17.553Z,65.10
2022-08-25T12:50:28.022Z,65.02
2022-08-25T12:52:56.175Z,64.96
2022-08-25T12:55:22.677Z,65.03
2022-08-25T12:57:49.928Z,64.94
2022-08-25T13:00:16.478Z,65.10
2022-08-25T13:05:33.743Z,64.92
2022-08-25T13:08:00.342Z,64.89
2022-08-25T13:10:28.841Z,64.78
2022-08-25T13:12:55.273Z,64.91
2022-08-25T13:15:21.687Z,64.65
2022-08-25T13:20:44.004Z,64.60
2022-08-25T13:23:11.473Z,64.79
2022-08-25T13:25:38.888Z,64.85
2022-08-25T13:28:05.518Z,64.94
2022-08-25T13:30:33.406Z,65.08
2022-08-25T13:35:53.332Z,65.21
2022-08-25T13:38:20.610Z,64.95
2022-08-25T13:40:47.080Z,65.19
2022-08-25T13:43:15.056Z,65.26
2022-08-25T13:45:41.870Z,65.23
2022-08-25T13:51:02.286Z,65.41
2022-08-25T13:53:30.700Z,65.34
2022-08-25T13:55:58.235Z,65.49
2022-08-25T13:58:44.588Z,65.36
2022-08-25T14:01:33.922Z,65.18
2022-08-25T14:06:42.220Z,61.92
2022-08-25T14:09:09.638Z,61.22
2022-08-25T14:11:36.379Z,60.24
2022-08-25T14:14:06.626Z,59.63
2022-08-25T14:16:34.989Z,60.07
2022-08-25T14:21:49.573Z,59.51
2022-08-25T14:24:16.219Z,59.34
2022-08-25T14:26:53.962Z,59.30
2022-08-25T14:29:21.141Z,60.41
2022-08-25T14:31:47.718Z,59.49
2022-08-25T14:36:59.270Z,59.35
2022-08-25T14:39:26.260Z,60.34
2022-08-25T14:41:53.333Z,60.25
2022-08-25T14:44:20.492Z,60.24
2022-08-25T14:46:47.751Z,60.37
2022-08-25T14:52:00.005Z,60.39
2022-08-25T14:54:26.689Z,60.25
2022-08-25T14:56:53.300Z,60.23
2022-08-25T14:59:19.742Z,59.97
2022-08-25T15:01:46.307Z,59.77
2022-08-25T15:07:05.733Z,59.63
2022-08-25T15:09:33.628Z,60.68
2022-08-25T15:12:01.115Z,62.52
2022-08-25T15:14:33.362Z,63.09
2022-08-25T15:17:00.881Z,63.26
2022-08-25T15:22:12.750Z,63.53
2022-08-25T15:24:39.221Z,63.38
2022-08-25T15:27:05.990Z,63.62
2022-08-25T15:29:36.626Z,63.47
2022-08-25T15:32:03.145Z,63.56
2022-08-25T15:37:24.527Z,63.64
2022-08-25T15:39:50.986Z,63.58
2022-08-25T15:42:20.210Z,63.61
2022-08-25T15:44:53.541Z,63.64
2022-08-25T15:47:20.213Z,63.99
2022-08-25T15:52:48.508Z,63.85
2022-08-25T15:55:15.234Z,63.86
2022-08-25T15:57:42.261Z,63.95
2022-08-25T16:00:08.815Z,63.87
2022-08-25T16:02:38.239Z,63.95
2022-08-25T16:07:51.580Z,64.03
2022-08-25T16:10:19.152Z,64.00
2022-08-25T16:12:49.122Z,63.95
2022-08-25T16:15:15.580Z,64.14
2022-08-25T16:17:44.355Z,64.27
2022-08-25T16:22:58.861Z,64.15
2022-08-25T16:25:26.440Z,64.21
2022-08-25T16:27:53.970Z,64.12
2022-08-25T16:30:21.241Z,64.01
2022-08-25T16:32:47.656Z,64.12
2022-08-25T16:38:12.399Z,64.16
2022-08-25T16:40:38.860Z,64.26
2022-08-25T16:43:07.628Z,64.25
2022-08-25T16:45:34.580Z,64.22
2022-08-25T16:48:01.823Z,64.30
2022-08-25T16:53:23.949Z,64.22
2022-08-25T16:55:51.322Z,64.14
2022-08-25T16:58:18.680Z,64.22
2022-08-25T17:00:45.766Z,63.90
2022-08-25T17:03:12.318Z,64.40
2022-08-25T17:08:22.356Z,64.26
2022-08-25T17:10:49.672Z,64.11
2022-08-25T17:13:16.927Z,64.12
2022-08-25T17:15:43.692Z,64.14
2022-08-25T17:18:12.713Z,64.29
2022-08-25T17:23:24.807Z,64.38
2022-08-25T17:25:52.436Z,64.23
2022-08-25T17:28:18.798Z,63.97
2022-08-25T17:30:45.183Z,64.27
2022-08-25T17:33:14.349Z,64.30
2022-08-25T17:38:35.302Z,64.30
2022-08-25T17:41:02.541Z,63.89
2022-08-25T17:43:32.470Z,63.33
2022-08-25T17:45:58.876Z,63.40
2022-08-25T17:48:25.251Z,63.33
2022-08-25T17:53:47.600Z,62.90
2022-08-25T17:56:15.073Z,54.57
2022-08-25T17:58:41.422Z,52.45
2022-08-25T18:01:07.891Z,49.31
2022-08-25T18:03:34.278Z,46.90
2022-08-25T18:08:52.382Z,45.64
2022-08-25T18:11:22.789Z,46.04
2022-08-25T18:13:50.438Z,45.17
2022-08-25T18:16:19.801Z,43.84
2022-08-25T18:18:46.248Z,43.43
2022-08-25T18:23:56.660Z,42.77
2022-08-25T18:26:25.433Z,41.34
2022-08-25T18:28:52.029Z,40.62
2022-08-25T18:31:19.892Z,39.20
2022-08-25T18:33:46.570Z,39.74
2022-08-25T18:39:07.694Z,40.55
2022-08-25T18:41:37.761Z,41.77
2022-08-25T18:44:07.358Z,42.71
2022-08-25T18:46:34.698Z,42.75
2022-08-25T18:49:05.882Z,43.49
2022-08-25T18:54:23.171Z,43.92
2022-08-25T18:56:50.453Z,43.26
2022-08-25T18:59:20.056Z,43.28
2022-08-25T19:01:50.472Z,43.21
2022-08-25T19:04:17.050Z,42.82
2022-08-25T19:09:29.741Z,41.72
2022-08-25T19:11:57.165Z,41.32
2022-08-25T19:14:23.651Z,40.40
2022-08-25T19:16:53.752Z,40.93
2022-08-25T19:19:20.121Z,41.24
2022-08-25T19:24:30.623Z,43.28
2022-08-25T19:26:57.022Z,43.21
2022-08-25T19:29:24.377Z,43.85
2022-08-25T19:31:51.124Z,45.04
2022-08-25T19:34:17.592Z,45.65
2022-08-25T19:39:40.997Z,45.62
2022-08-25T19:42:08.624Z,45.25
2022-08-25T19:44:55.105Z,45.77
2022-08-25T19:47:24.406Z,45.28
2022-08-25T19:49:50.909Z,45.48
2022-08-25T19:55:14.156Z,45.63
2022-08-25T19:57:43.357Z,45.56
2022-08-25T20:00:11.730Z,45.55
2022-08-25T20:02:40.926Z,45.52
2022-08-25T20:05:08.254Z,45.38
2022-08-25T20:10:18.833Z,45.92
2022-08-25T20:12:47.129Z,46.11
2022-08-25T20:15:14.484Z,46.32
2022-08-25T20:17:43.246Z,46.92
2022-08-25T20:20:12.370Z,47.19
2022-08-25T20:25:27.484Z,47.34
2022-08-25T20:28:04.083Z,47.72
2022-08-25T20:30:30.635Z,48.47
2022-08-25T20:32:59.018Z,48.11
2022-08-25T20:35:26.571Z,48.08
2022-08-25T20:40:40.378Z,47.50
2022-08-25T20:43:10.512Z,47.88
2022-08-25T20:45:38.746Z,47.43
2022-08-25T20:48:05.411Z,47.88
2022-08-25T20:50:32.942Z,48.05
2022-08-25T20:55:45.450Z,48.64
2022-08-25T20:58:14.198Z,47.62
2022-08-25T21:00:40.839Z,47.23
2022-08-25T21:03:07.352Z,47.81
2022-08-25T21:05:34.264Z,47.83
2022-08-25T21:10:57.063Z,47.98
2022-08-25T21:13:25.629Z,47.72
2022-08-25T21:15:52.109Z,46.71
2022-08-25T21:18:18.515Z,47.24
2022-08-25T21:20:44.961Z,47.44
2022-08-25T21:26:07.121Z,47.51
2022-08-25T21:28:35.400Z,47.99
2022-08-25T21:31:02.019Z,49.34
2022-08-25T21:33:28.464Z,49.86
2022-08-25T21:35:54.972Z,50.27
2022-08-25T21:41:07.448Z,50.96
2022-08-25T21:43:33.975Z,50.44
2022-08-25T21:46:00.527Z,50.94
2022-08-25T21:48:27.020Z,49.94
2022-08-25T21:50:55.398Z,51.22
2022-08-25T21:56:07.861Z,50.70
2022-08-25T21:58:34.358Z,50.34
2022-08-25T22:01:04.634Z,50.03
2022-08-25T22:03:36.940Z,50.74
2022-08-25T22:06:05.509Z,51.80
2022-08-25T22:11:26.207Z,52.73
2022-08-25T22:13:52.746Z,52.13
2022-08-25T22:16:20.527Z,52.84
2022-08-25T22:18:51.531Z,52.89
2022-08-25T22:21:18.141Z,53.22
2022-08-25T22:26:40.436Z,54.22
2022-08-25T22:29:08.830Z,54.85
2022-08-25T22:31:36.191Z,54.46
2022-08-25T22:34:04.342Z,54.06
2022-08-25T22:36:32.248Z,54.18
2022-08-25T22:41:42.806Z,54.12
2022-08-25T22:44:11.185Z,54.63
2022-08-25T22:46:38.036Z,54.28
2022-08-25T22:49:05.617Z,54.34
2022-08-25T22:51:36.716Z,55.16
2022-08-25T22:56:57.652Z,55.92
2022-08-25T22:59:24.901Z,56.21
2022-08-25T23:01:51.355Z,55.46
2022-08-25T23:04:17.829Z,55.40
2022-08-25T23:06:45.695Z,55.38
2022-08-25T23:12:08.332Z,56.38
2022-08-25T23:14:34.963Z,56.90
2022-08-25T23:17:01.403Z,57.59
2022-08-25T23:19:28.695Z,57.71
2022-08-25T23:21:56.841Z,57.72
2022-08-25T23:27:10.706Z,56.91
2022-08-25T23:29:37.972Z,56.85
2022-08-25T23:32:05.304Z,57.33
2022-08-25T23:34:31.770Z,57.80
2022-08-25T23:37:00.294Z,57.72
2022-08-25T23:42:20.821Z,58.38
2022-08-25T23:44:48.154Z,58.15
2022-08-25T23:47:14.600Z,58.37
2022-08-25T23:49:41.994Z,58.57
2022-08-25T23:52:08.452Z,58.71
2022-08-25T23:57:29.878Z,58.67
2022-08-25T23:59:56.411Z,59.26
